Time;durP1;ratioP1;P1;durP2;ratioP2;P2;SDS_P1;SDS_P2;PMS_P1;PMS_P2;Temp;Humidity;BMP_temperature;BMP_pressure;BME280_temperature;BME280_humidity;BME280_pressure;Samples;Min_cycle;Max_cycle;Signal;HPM_P1;HPM_P2
2022/06/30 00:00:43;;;;;;;10.75;8.30;;;17.30;99.90;;;;;;5041812;28;20049;-86
2022/06/30 00:03:33;;;;;;;9.60;7.85;;;17.10;99.90;;;;;;5043570;28;20474;-84
2022/06/30 00:06:21;;;;;;;10.48;8.25;;;17.00;99.90;;;;;;5045717;28;20060;-84
2022/06/30 00:09:08;;;;;;;9.10;8.15;;;16.90;99.90;;;;;;5049355;28;20045;-83
2022/06/30 00:11:58;;;;;;;10.77;8.85;;;16.90;99.90;;;;;;5051054;28;20213;-86
2022/06/30 00:14:45;;;;;;;9.55;8.43;;;16.90;99.90;;;;;;5051378;28;20138;-87
2022/06/30 00:17:33;;;;;;;12.05;7.70;;;16.80;99.90;;;;;;5047452;28;20052;-86
2022/06/30 00:20:22;;;;;;;8.68;7.78;;;16.80;99.90;;;;;;5051568;28;20045;-85
2022/06/30 00:23:10;;;;;;;11.45;7.53;;;16.80;99.90;;;;;;5052210;28;20080;-85
2022/06/30 00:25:57;;;;;;;13.07;8.82;;;16.70;99.90;;;;;;5053869;28;20106;-85
2022/06/30 00:28:46;;;;;;;10.57;8.27;;;16.70;99.90;;;;;;5035696;28;20064;-86
2022/06/30 00:31:33;;;;;;;9.05;8.15;;;16.60;99.90;;;;;;5052624;28;20454;-83
2022/06/30 00:34:20;;;;;;;10.93;8.05;;;16.60;99.90;;;;;;5053236;28;20036;-84
2022/06/30 00:37:11;;;;;;;12.25;8.43;;;16.60;99.90;;;;;;5050400;28;20079;-85
2022/06/30 00:39:58;;;;;;;13.90;7.93;;;16.50;99.90;;;;;;5033679;28;20175;-84
2022/06/30 00:42:45;;;;;;;10.82;8.85;;;16.40;99.90;;;;;;5043810;28;20048;-83
2022/06/30 00:45:44;;;;;;;9.70;8.70;;;16.30;99.90;;;;;;5050564;28;20119;-85
2022/06/30 00:48:32;;;;;;;14.38;10.10;;;16.20;99.90;;;;;;5045558;28;20152;-86
2022/06/30 00:51:22;;;;;;;11.70;10.57;;;16.20;99.90;;;;;;5052062;28;20051;-83
2022/06/30 00:54:11;;;;;;;11.63;9.57;;;16.30;99.90;;;;;;5050659;28;20068;-84
2022/06/30 00:56:59;;;;;;;11.02;9.27;;;16.40;99.90;;;;;;5052309;28;20106;-85
2022/06/30 00:59:51;;;;;;;14.40;9.73;;;16.40;99.90;;;;;;5032935;28;20052;-86
2022/06/30 01:02:39;;;;;;;16.85;9.77;;;16.40;99.90;;;;;;5051927;28;20485;-87
2022/06/30 01:05:28;;;;;;;11.32;9.52;;;16.40;99.90;;;;;;5046766;28;20040;-85
2022/06/30 01:08:16;;;;;;;10.40;8.38;;;16.40;99.90;;;;;;5046229;28;20442;-84
2022/06/30 01:14:10;;;;;;;11.93;9.45;;;16.30;99.90;;;;;;5037007;28;20123;-86
2022/06/30 01:16:59;;;;;;;11.73;9.48;;;16.20;99.90;;;;;;5042719;28;20073;-87
2022/06/30 01:19:56;;;;;;;12.25;10.52;;;16.10;99.90;;;;;;5035388;28;20063;-86
2022/06/30 01:22:43;;;;;;;11.45;10.38;;;16.00;99.90;;;;;;5047296;28;20045;-83
2022/06/30 01:25:33;;;;;;;12.63;11.02;;;15.90;99.90;;;;;;5051531;28;20065;-83
2022/06/30 01:28:21;;;;;;;15.57;11.35;;;15.90;99.90;;;;;;5033095;28;20045;-85
2022/06/30 01:31:08;;;;;;;15.73;11.57;;;15.80;99.90;;;;;;5013708;28;20091;-84
2022/06/30 01:33:55;;;;;;;18.40;10.80;;;15.70;99.90;;;;;;5050741;28;20127;-84
2022/06/30 01:36:43;;;;;;;17.13;10.70;;;15.80;99.90;;;;;;5046492;28;20045;-84
2022/06/30 01:39:30;;;;;;;11.73;9.25;;;15.90;99.90;;;;;;5044440;28;20364;-85
2022/06/30 01:42:20;;;;;;;12.93;8.70;;;15.80;99.90;;;;;;5045486;28;20045;-84
2022/06/30 01:45:07;;;;;;;11.63;8.85;;;15.80;99.90;;;;;;5043555;28;20053;-84
2022/06/30 01:47:55;;;;;;;10.18;8.32;;;15.80;99.90;;;;;;5039368;28;20052;-84
2022/06/30 01:50:45;;;;;;;9.73;7.93;;;15.80;99.90;;;;;;5053693;28;20362;-85
2022/06/30 01:53:32;;;;;;;18.45;9.63;;;15.70;99.90;;;;;;5047457;28;20048;-84
2022/06/30 01:56:19;;;;;;;12.80;9.60;;;15.60;99.90;;;;;;5056899;28;20435;-84
2022/06/30 01:59:13;;;;;;;17.60;11.43;;;15.50;99.90;;;;;;5059677;28;20049;-84
2022/06/30 02:02:01;;;;;;;11.43;10.25;;;15.50;99.90;;;;;;5052383;28;20885;-84
2022/06/30 02:04:53;;;;;;;17.13;10.50;;;15.40;99.90;;;;;;5052032;28;20428;-84
2022/06/30 02:07:41;;;;;;;17.17;11.60;;;15.40;99.90;;;;;;5050754;28;20049;-82
2022/06/30 02:10:28;;;;;;;13.25;10.57;;;15.40;99.90;;;;;;5050684;28;20250;-84
2022/06/30 02:13:15;;;;;;;17.92;10.80;;;15.40;99.90;;;;;;5049033;28;20064;-84
2022/06/30 02:16:02;;;;;;;14.48;10.07;;;15.40;99.90;;;;;;5041198;28;20086;-85
2022/06/30 02:18:50;;;;;;;14.35;11.32;;;15.40;99.90;;;;;;5056745;28;20068;-86
2022/06/30 02:21:37;;;;;;;21.40;10.40;;;15.40;99.90;;;;;;5059391;28;20076;-85
2022/06/30 02:24:24;;;;;;;15.73;10.43;;;15.40;99.90;;;;;;5066511;28;20091;-85
2022/06/30 02:27:14;;;;;;;16.52;10.95;;;15.40;99.90;;;;;;5063859;28;20063;-85
2022/06/30 02:30:06;;;;;;;13.10;10.17;;;15.40;99.90;;;;;;5041609;28;20055;-83
2022/06/30 02:32:53;;;;;;;11.88;10.23;;;15.40;99.90;;;;;;5058308;28;20357;-85
2022/06/30 02:35:44;;;;;;;13.23;10.65;;;15.30;99.90;;;;;;5048008;28;20064;-84
2022/06/30 02:38:31;;;;;;;14.48;10.32;;;15.30;99.90;;;;;;5042611;28;20099;-84
2022/06/30 02:41:20;;;;;;;12.18;10.70;;;15.20;99.90;;;;;;5056002;28;20040;-85
2022/06/30 02:44:07;;;;;;;17.90;12.23;;;15.20;99.90;;;;;;5051715;28;20049;-89
2022/06/30 02:46:54;;;;;;;18.65;12.20;;;15.20;99.90;;;;;;5038560;28;20502;-89
2022/06/30 02:49:45;;;;;;;16.60;11.75;;;15.10;99.90;;;;;;5043379;28;20045;-89
2022/06/30 02:52:33;;;;;;;17.50;12.25;;;15.10;99.90;;;;;;5053972;28;20052;-89
2022/06/30 02:55:23;;;;;;;16.08;12.00;;;15.10;99.90;;;;;;5055113;28;20069;-89
2022/06/30 02:58:10;;;;;;;19.98;12.63;;;15.00;99.90;;;;;;5054660;28;20485;-89
2022/06/30 03:00:58;;;;;;;15.85;11.43;;;15.00;99.90;;;;;;5044767;28;20048;-90
2022/06/30 03:03:45;;;;;;;18.60;12.13;;;15.00;99.90;;;;;;5054877;28;20073;-89
2022/06/30 03:06:36;;;;;;;17.02;11.43;;;15.00;99.90;;;;;;5041227;28;20060;-89
2022/06/30 03:09:23;;;;;;;17.83;11.30;;;15.00;99.90;;;;;;5041123;28;20056;-87
2022/06/30 03:12:11;;;;;;;17.00;11.02;;;15.00;99.90;;;;;;5054247;28;20511;-87
2022/06/30 03:14:58;;;;;;;14.52;10.80;;;14.90;99.90;;;;;;5018017;28;20099;-88
2022/06/30 03:17:48;;;;;;;15.70;11.32;;;14.90;99.90;;;;;;5041490;28;20163;-88
2022/06/30 03:20:35;;;;;;;16.65;10.48;;;14.90;99.90;;;;;;5032032;28;20052;-87
2022/06/30 03:23:26;;;;;;;18.83;10.98;;;14.90;99.90;;;;;;5042817;28;20130;-89
2022/06/30 03:26:13;;;;;;;18.23;11.98;;;14.90;99.90;;;;;;5050443;28;20044;-87
2022/06/30 03:29:00;;;;;;;17.13;11.35;;;14.80;99.90;;;;;;5033696;28;20102;-89
2022/06/30 03:31:48;;;;;;;16.08;11.07;;;14.80;99.90;;;;;;5039443;28;20037;-87
2022/06/30 03:34:36;;;;;;;15.13;11.23;;;14.80;99.90;;;;;;5047621;28;20085;-90
2022/06/30 03:37:23;;;;;;;19.65;11.05;;;14.80;99.90;;;;;;5056046;28;20120;-89
2022/06/30 03:40:12;;;;;;;18.08;12.65;;;14.80;99.90;;;;;;5037813;28;20098;-91
2022/06/30 03:43:02;;;;;;;22.08;12.57;;;14.80;99.90;;;;;;5054575;28;20461;-89
2022/06/30 03:45:51;;;;;;;16.58;13.38;;;14.70;99.90;;;;;;5051668;28;20615;-90
2022/06/30 03:48:41;;;;;;;20.10;13.65;;;14.60;99.90;;;;;;5053078;28;20064;-90
2022/06/30 03:51:28;;;;;;;16.08;14.30;;;14.60;99.90;;;;;;5055101;28;20045;-90
2022/06/30 03:54:19;;;;;;;18.38;14.43;;;14.60;99.90;;;;;;5050189;28;20064;-90
2022/06/30 03:57:08;;;;;;;23.70;15.88;;;14.70;99.90;;;;;;5043422;28;20037;-90
2022/06/30 03:59:55;;;;;;;18.80;15.23;;;14.90;99.90;;;;;;5058971;28;20049;-90
2022/06/30 04:03:33;;;;;;;20.88;14.38;;;14.90;99.90;;;;;;5061523;28;20048;-89
2022/06/30 04:06:23;;;;;;;19.33;15.13;;;15.00;99.90;;;;;;5041869;28;20162;-88
2022/06/30 04:09:12;;;;;;;19.63;15.73;;;15.10;99.90;;;;;;5055436;28;20041;-91
2022/06/30 04:11:59;;;;;;;17.10;14.20;;;15.20;99.90;;;;;;5042531;28;20186;-91
2022/06/30 04:14:48;;;;;;;17.83;13.88;;;15.20;99.90;;;;;;5059408;28;20049;-91
2022/06/30 04:17:36;;;;;;;17.42;14.05;;;15.30;99.90;;;;;;5045809;28;20041;-92
2022/06/30 04:20:23;;;;;;;17.08;14.25;;;15.30;99.90;;;;;;5049820;28;20108;-90
2022/06/30 04:23:13;;;;;;;17.20;14.48;;;15.40;99.90;;;;;;5057197;28;20114;-93
2022/06/30 04:26:00;;;;;;;16.67;14.38;;;15.50;99.90;;;;;;5050981;28;20061;-92
2022/06/30 04:28:51;;;;;;;16.02;12.70;;;15.50;99.90;;;;;;5055723;28;20111;-91
2022/06/30 04:34:44;;;;;;;16.95;11.48;;;15.70;99.90;;;;;;5057278;28;20089;-90
2022/06/30 04:37:31;;;;;;;14.82;10.73;;;15.70;99.90;;;;;;5049756;28;20041;-91
2022/06/30 04:43:24;;;;;;;13.75;11.15;;;15.80;99.90;;;;;;5049448;28;20056;-90
2022/06/30 04:46:12;;;;;;;13.82;10.88;;;15.90;99.90;;;;;;5040149;28;20075;-90
2022/06/30 04:48:59;;;;;;;11.50;10.27;;;16.00;99.90;;;;;;5051221;28;20051;-92
2022/06/30 04:51:46;;;;;;;15.70;9.18;;;16.10;99.90;;;;;;5053530;28;20142;-92
2022/06/30 04:54:34;;;;;;;12.88;8.90;;;16.30;99.90;;;;;;5044184;28;20052;-91
2022/06/30 04:57:21;;;;;;;10.80;9.23;;;16.40;99.90;;;;;;5053524;28;20045;-92
2022/06/30 05:00:08;;;;;;;11.57;9.40;;;16.50;99.90;;;;;;5054142;28;20048;-88
2022/06/30 05:02:56;;;;;;;9.82;8.13;;;16.60;99.90;;;;;;5048078;28;20057;-88
2022/06/30 05:05:43;;;;;;;11.98;8.70;;;16.70;99.90;;;;;;5050759;28;20355;-88
2022/06/30 05:08:31;;;;;;;12.27;8.68;;;16.80;99.90;;;;;;5048548;28;20056;-87
2022/06/30 05:11:56;;;;;;;11.13;7.57;;;16.90;99.90;;;;;;5049895;28;20350;-89
2022/06/30 05:14:43;;;;;;;10.73;7.07;;;17.00;99.90;;;;;;5042283;28;20159;-88
2022/06/30 05:17:33;;;;;;;9.38;7.85;;;17.10;99.90;;;;;;5052602;28;20060;-87
2022/06/30 05:20:21;;;;;;;10.88;7.10;;;17.30;99.90;;;;;;5052892;28;20374;-89
2022/06/30 05:23:09;;;;;;;9.98;7.07;;;17.40;99.90;;;;;;5050749;28;20061;-88
2022/06/30 05:29:01;;;;;;;10.00;6.45;;;17.60;99.90;;;;;;5055139;28;20065;-90
2022/06/30 05:31:49;;;;;;;8.65;6.38;;;17.80;99.90;;;;;;5037952;28;20385;-91
2022/06/30 05:34:39;;;;;;;17.30;6.47;;;17.90;99.90;;;;;;5055102;28;20044;-93
2022/06/30 05:37:28;;;;;;;8.50;5.80;;;18.00;99.90;;;;;;5029202;28;20045;-90
2022/06/30 05:40:16;;;;;;;15.50;6.13;;;18.20;99.90;;;;;;5038141;28;20051;-91
2022/06/30 05:43:06;;;;;;;9.90;6.00;;;18.30;99.90;;;;;;5031157;28;20053;-90
2022/06/30 05:45:55;;;;;;;9.40;5.63;;;18.40;99.90;;;;;;5052811;28;20079;-91
2022/06/30 05:48:42;;;;;;;10.07;5.82;;;18.40;99.90;;;;;;5050886;28;21608;-90
2022/06/30 05:51:33;;;;;;;11.82;6.30;;;18.50;99.90;;;;;;5031909;28;20045;-89
2022/06/30 05:54:25;;;;;;;12.85;6.35;;;18.60;99.90;;;;;;5054735;28;20045;-91
2022/06/30 05:57:15;;;;;;;13.63;6.20;;;18.80;99.90;;;;;;5054563;28;20377;-90
2022/06/30 06:00:02;;;;;;;9.20;6.50;;;18.90;99.90;;;;;;5041523;28;20369;-92
2022/06/30 06:02:51;;;;;;;7.20;5.97;;;19.00;99.90;;;;;;5055765;28;20060;-90
2022/06/30 06:05:40;;;;;;;12.70;5.78;;;19.00;99.90;;;;;;5040506;28;20045;-92
2022/06/30 06:08:47;;;;;;;;;;;;;;;;;;;;;
2022/06/30 06:11:36;;;;;;;10.30;5.70;;;19.20;99.90;;;;;;5056874;28;20123;-92
2022/06/30 06:14:30;;;;;;;9.15;5.63;;;19.30;99.90;;;;;;5049687;28;20041;-92
2022/06/30 06:17:19;;;;;;;6.75;5.57;;;19.50;99.90;;;;;;5034619;28;20069;-91
2022/06/30 06:20:10;;;;;;;10.05;5.90;;;19.70;99.90;;;;;;5039303;28;20061;-93
2022/06/30 06:22:58;;;;;;;8.98;5.90;;;19.70;99.90;;;;;;5039502;28;20393;-91
2022/06/30 06:25:45;;;;;;;7.18;5.78;;;19.90;99.90;;;;;;5038589;28;20067;-91
2022/06/30 06:31:42;;;;;;;7.35;5.50;;;20.10;99.90;;;;;;5057702;28;20053;-93
2022/06/30 06:34:29;;;;;;;7.65;6.55;;;20.30;99.90;;;;;;5032955;28;20183;-93
2022/06/30 06:37:19;;;;;;;14.68;6.85;;;20.40;99.90;;;;;;5036501;28;20156;-93
2022/06/30 06:40:07;;;;;;;13.02;6.07;;;20.50;99.90;;;;;;5040786;28;20118;-92
2022/06/30 06:42:56;;;;;;;8.85;6.05;;;20.70;99.90;;;;;;5046648;28;20076;-91
2022/06/30 06:45:44;;;;;;;9.68;6.60;;;21.00;99.90;;;;;;5054312;28;20060;-90
2022/06/30 06:48:36;;;;;;;9.20;6.25;;;21.10;99.90;;;;;;5046861;28;20048;-90
2022/06/30 06:51:24;;;;;;;13.05;6.40;;;21.40;99.90;;;;;;5047571;28;20088;-92
2022/06/30 06:54:13;;;;;;;8.65;6.40;;;21.60;99.90;;;;;;5052236;28;20052;-93
2022/06/30 06:57:01;;;;;;;9.85;5.13;;;21.90;99.90;;;;;;5042903;28;20048;-90
2022/06/30 06:59:51;;;;;;;7.25;4.88;;;22.20;99.90;;;;;;5052437;28;20050;-91
2022/06/30 07:02:43;;;;;;;7.53;4.82;;;22.60;99.90;;;;;;5038729;28;20045;-87
2022/06/30 07:05:31;;;;;;;7.72;4.80;;;22.90;99.90;;;;;;5051141;28;20042;-90
2022/06/30 07:08:24;;;;;;;6.22;4.47;;;23.30;99.90;;;;;;5056212;28;20041;-90
2022/06/30 07:11:11;;;;;;;6.32;4.50;;;23.80;99.90;;;;;;5056920;28;20391;-93
2022/06/30 07:14:00;;;;;;;12.77;4.90;;;24.30;99.90;;;;;;5039861;28;20045;-92
2022/06/30 07:16:50;;;;;;;9.15;5.00;;;24.60;99.90;;;;;;5044068;28;20128;-90
2022/06/30 07:19:38;;;;;;;7.13;4.35;;;24.90;99.90;;;;;;5050879;28;20131;-91
2022/06/30 07:22:25;;;;;;;9.25;3.88;;;25.30;99.90;;;;;;5047386;28;20434;-91
2022/06/30 07:25:12;;;;;;;5.10;3.72;;;25.70;99.90;;;;;;5043255;28;20382;-88
2022/06/30 07:28:01;;;;;;;23.20;4.70;;;26.20;99.90;;;;;;5057402;28;20064;-88
2022/06/30 07:30:49;;;;;;;10.48;3.75;;;26.50;99.90;;;;;;5038355;28;20041;-87
2022/06/30 07:33:36;;;;;;;9.93;3.97;;;27.00;99.90;;;;;;5055266;28;20129;-87
2022/06/30 07:36:23;;;;;;;17.83;4.35;;;27.20;99.90;;;;;;5034618;28;20049;-87
2022/06/30 07:39:29;;;;;;;6.38;3.60;;;27.60;99.90;;;;;;5050848;28;20052;-92
2022/06/30 07:42:16;;;;;;;5.32;3.70;;;27.80;99.90;;;;;;5052613;28;20040;-89
2022/06/30 07:45:04;;;;;;;6.13;3.80;;;27.30;99.90;;;;;;5036055;28;20060;-89
2022/06/30 07:47:53;;;;;;;13.32;4.28;;;27.00;99.90;;;;;;5045625;28;20053;-91
2022/06/30 07:50:40;;;;;;;6.32;3.72;;;26.90;99.90;;;;;;5039928;28;20533;-88
2022/06/30 07:53:30;;;;;;;6.72;3.95;;;27.00;99.90;;;;;;5054504;28;20057;-89
2022/06/30 07:56:20;;;;;;;4.35;3.67;;;27.00;99.90;;;;;;5044742;28;20060;-91
2022/06/30 07:59:11;;;;;;;7.18;4.30;;;27.10;99.90;;;;;;5056225;28;20068;-90
2022/06/30 08:02:00;;;;;;;5.18;3.03;;;28.00;99.90;;;;;;5055141;28;20053;-89
2022/06/30 08:04:49;;;;;;;7.93;3.25;;;29.00;36.30;;;;;;5054222;28;20050;-91
2022/06/30 08:07:37;;;;;;;5.35;3.25;;;29.20;1.70;;;;;;5053401;28;20059;-90
2022/06/30 08:10:24;;;;;;;9.57;3.10;;;29.20;1.00;;;;;;5052475;28;20146;-91
2022/06/30 08:13:12;;;;;;;5.95;3.10;;;29.70;1.00;;;;;;5050625;28;20436;-88
2022/06/30 08:15:59;;;;;;;4.57;2.97;;;29.30;1.00;;;;;;5053459;28;20130;-87
2022/06/30 08:18:47;;;;;;;5.47;2.70;;;29.60;1.00;;;;;;5058218;28;20049;-88
2022/06/30 08:21:34;;;;;;;3.53;3.17;;;30.00;40.10;;;;;;5037434;28;20121;-91
2022/06/30 08:24:22;;;;;;;7.13;3.20;;;30.50;1.80;;;;;;5055498;28;20041;-90
2022/06/30 08:27:10;;;;;;;9.18;3.13;;;30.20;99.90;;;;;;5037942;28;20112;-88
2022/06/30 08:29:58;;;;;;;5.40;3.15;;;29.70;1.00;;;;;;5037224;28;20045;-90
2022/06/30 08:32:46;;;;;;;8.43;3.45;;;30.30;1.00;;;;;;5045834;28;20037;-88
2022/06/30 08:35:36;;;;;;;4.88;2.80;;;31.10;99.90;;;;;;5036287;28;20063;-88
2022/06/30 08:38:43;;;;;;;3.10;2.80;;;31.40;99.90;;;;;;5049596;28;20044;-88
2022/06/30 08:44:43;;;;;;;26.38;7.10;;;31.70;99.90;;;;;;5050888;28;20053;-89
2022/06/30 08:47:30;;;;;;;7.18;3.30;;;31.60;99.90;;;;;;5042057;28;20071;-88
2022/06/30 08:50:18;;;;;;;29.15;11.10;;;31.60;99.90;;;;;;5039378;28;20047;-85
2022/06/30 08:53:07;;;;;;;5.65;2.65;;;31.80;99.90;;;;;;5052243;28;20045;-88
2022/06/30 08:55:58;;;;;;;5.05;2.88;;;31.90;1.00;;;;;;5041810;28;20052;-89
2022/06/30 08:58:46;;;;;;;4.47;2.25;;;32.30;53.70;;;;;;5041155;28;20087;-87
2022/06/30 09:01:34;;;;;;;4.50;1.98;;;32.10;1.00;;;;;;5039752;28;20047;-87
2022/06/30 09:04:22;;;;;;;6.88;2.30;;;32.50;99.90;;;;;;5039767;28;20104;-86
2022/06/30 09:07:11;;;;;;;5.80;2.70;;;32.40;1.00;;;;;;5044023;28;20067;-85
2022/06/30 09:09:58;;;;;;;6.20;2.88;;;31.00;99.90;;;;;;5039663;28;20045;-86
2022/06/30 09:12:57;;;;;;;4.03;2.80;;;31.10;99.90;;;;;;5052866;28;20473;-88
2022/06/30 09:15:44;;;;;;;3.63;2.53;;;31.80;46.70;;;;;;5051553;28;20423;-88
2022/06/30 09:18:32;;;;;;;9.60;2.33;;;32.50;1.00;;;;;;5050781;28;20056;-88
2022/06/30 09:21:20;;;;;;;5.97;1.90;;;32.60;99.90;;;;;;5041833;28;20056;-85
2022/06/30 09:24:22;;;;;;;4.00;2.50;;;32.80;99.90;;;;;;5047608;28;20127;-89
2022/06/30 09:27:19;;;;;;;6.80;2.58;;;33.10;1.00;;;;;;5055843;28;20048;-87
2022/06/30 09:30:09;;;;;;;4.45;2.25;;;33.20;1.00;;;;;;5050680;28;20434;-90
2022/06/30 09:33:11;;;;;;;101.13;9.80;;;33.80;99.90;;;;;;5052458;28;20053;-86
2022/06/30 09:36:18;;;;;;;29.75;3.88;;;33.60;99.90;;;;;;5037251;28;20072;-85
2022/06/30 09:39:10;;;;;;;10.30;2.42;;;32.90;1.00;;;;;;5051385;28;20059;-85
2022/06/30 09:41:57;;;;;;;18.92;3.90;;;32.30;99.90;;;;;;5049916;28;20060;-84
2022/06/30 09:44:49;;;;;;;4.68;2.20;;;31.70;17.10;;;;;;5051247;28;20093;-83
2022/06/30 09:48:00;;;;;;;17.48;2.78;;;31.50;99.90;;;;;;5055559;28;20041;-84
2022/06/30 09:50:59;;;;;;;5.80;2.50;;;32.00;99.90;;;;;;5039685;28;20045;-84
2022/06/30 09:54:08;;;;;;;5.68;2.30;;;32.20;99.90;;;;;;5032762;28;20056;-83
2022/06/30 09:57:04;;;;;;;2.17;1.90;;;33.40;1.00;;;;;;5053983;28;20097;-82
2022/06/30 10:00:12;;;;;;;17.45;3.05;;;34.10;99.90;;;;;;5058451;28;20088;-81
2022/06/30 10:03:07;;;;;;;7.60;1.95;;;33.40;99.90;;;;;;5068514;28;20029;-84
2022/06/30 10:06:11;;;;;;;6.63;2.35;;;33.00;1.00;;;;;;5064504;28;20041;-85
2022/06/30 10:08:59;;;;;;;3.08;2.05;;;33.00;99.90;;;;;;5057211;28;20053;-85
2022/06/30 10:11:47;;;;;;;3.00;2.10;;;33.70;29.20;;;;;;5052262;28;20071;-86
2022/06/30 10:14:35;;;;;;;3.55;2.20;;;34.30;99.90;;;;;;5059856;28;20045;-84
2022/06/30 10:17:30;;;;;;;6.47;2.10;;;34.80;99.90;;;;;;5052005;28;20045;-85
2022/06/30 10:20:18;;;;;;;4.05;2.33;;;34.80;99.90;;;;;;5056845;28;20073;-89
2022/06/30 10:23:08;;;;;;;6.72;2.72;;;35.60;19.90;;;;;;5062997;28;20051;-87
2022/06/30 10:25:58;;;;;;;2.78;1.92;;;35.60;1.00;;;;;;5057925;28;20045;-91
2022/06/30 10:28:51;;;;;;;8.10;2.40;;;35.90;1.00;;;;;;5058491;28;20515;-91
2022/06/30 10:32:08;;;;;;;15.07;4.22;;;36.40;99.90;;;;;;5056510;28;20419;-88
2022/06/30 10:35:34;;;;;;;4.82;2.35;;;34.80;99.90;;;;;;5041925;28;20040;-90
2022/06/30 10:38:25;;;;;;;4.22;2.65;;;35.10;99.90;;;;;;5038206;28;20061;-91
2022/06/30 10:41:14;;;;;;;;;;;36.00;26.20;;;;;;5038707;28;20111;-89
2022/06/30 10:44:05;;;;;;;8.43;5.25;;;35.90;6.70;;;;;;5037464;28;19920;-86
2022/06/30 10:46:55;;;;;;;9.00;2.80;;;35.80;99.90;;;;;;5052270;28;20072;-89
2022/06/30 10:49:54;;;;;;;7.88;2.67;;;35.80;99.90;;;;;;5043697;28;20048;-90
2022/06/30 10:52:41;;;;;;;6.07;2.95;;;35.40;29.90;;;;;;5046775;28;20045;-90
2022/06/30 10:55:28;;;;;;;5.88;3.25;;;35.40;99.90;;;;;;5052273;28;20110;-90
2022/06/30 10:58:16;;;;;;;5.90;2.30;;;35.50;99.90;;;;;;5038347;28;20063;-92
2022/06/30 11:01:11;;;;;;;5.50;2.22;;;36.00;1.00;;;;;;5054772;28;20210;-91
2022/06/30 11:04:02;;;;;;;4.05;2.80;;;36.30;99.90;;;;;;5030761;28;20080;-86
2022/06/30 11:07:03;;;;;;;7.35;2.47;;;36.80;99.90;;;;;;5054412;28;20470;-87
2022/06/30 11:09:51;;;;;;;3.65;2.13;;;36.80;99.90;;;;;;5052929;28;20359;-91
2022/06/30 11:12:39;;;;;;;5.47;2.15;;;36.40;99.90;;;;;;5054471;28;20059;-91
2022/06/30 11:15:50;;;;;;;4.80;2.35;;;37.00;99.90;;;;;;5058588;28;20036;-91
2022/06/30 11:18:38;;;;;;;4.55;2.40;;;37.70;99.90;;;;;;5038860;28;20049;-90
2022/06/30 11:21:29;;;;;;;10.52;7.45;;;36.30;99.90;;;;;;5038524;28;20053;-89
2022/06/30 11:24:22;;;;;;;5.75;3.17;;;35.70;99.90;;;;;;5037534;28;20139;-87
2022/06/30 11:27:24;;;;;;;8.88;3.42;;;36.20;99.90;;;;;;5039845;28;20359;-86
2022/06/30 11:30:12;;;;;;;7.03;2.05;;;37.10;99.90;;;;;;5052902;28;20041;-89
2022/06/30 11:33:03;;;;;;;7.68;2.45;;;37.70;99.90;;;;;;5054897;28;20048;-87
2022/06/30 11:36:00;;;;;;;7.03;3.05;;;37.50;99.90;;;;;;5053212;28;20079;-87
2022/06/30 11:39:00;;;;;;;15.35;2.50;;;35.90;99.90;;;;;;5054331;28;20095;-88
2022/06/30 11:41:59;;;;;;;3.75;2.42;;;35.10;99.90;;;;;;5053660;28;20097;-88
2022/06/30 11:44:46;;;;;;;3.13;2.30;;;35.90;99.90;;;;;;5049699;28;20470;-89
2022/06/30 11:47:34;;;;;;;7.22;2.40;;;36.90;99.90;;;;;;5049535;28;20056;-89
2022/06/30 11:50:31;;;;;;;6.95;2.50;;;37.30;1.00;;;;;;5057172;28;20060;-91
2022/06/30 11:53:18;;;;;;;6.78;2.38;;;37.90;99.90;;;;;;5041565;28;20045;-89
2022/06/30 11:56:05;;;;;;;9.48;2.05;;;37.90;99.90;;;;;;5055994;28;20116;-90
2022/06/30 11:59:08;;;;;;;10.68;2.80;;;38.00;1.00;;;;;;5041345;28;20103;-89
2022/06/30 12:02:00;;;;;;;3.42;2.55;;;38.10;99.90;;;;;;5054567;28;20057;-91
2022/06/30 12:04:59;;;;;;;3.15;2.15;;;37.90;99.90;;;;;;5054665;28;20068;-86
2022/06/30 12:07:50;;;;;;;6.75;2.65;;;38.20;1.00;;;;;;5036614;28;20437;-89
2022/06/30 12:10:37;;;;;;;5.43;3.00;;;37.30;25.30;;;;;;5050458;28;20049;-90
2022/06/30 12:13:25;;;;;;;6.72;2.30;;;37.20;28.70;;;;;;5046171;28;20379;-89
2022/06/30 12:16:12;;;;;;;36.30;5.50;;;37.00;99.90;;;;;;5057187;28;20067;-88
2022/06/30 12:19:02;;;;;;;4.75;2.38;;;38.20;99.90;;;;;;5054265;28;20045;-88
2022/06/30 12:21:51;;;;;;;6.18;2.78;;;38.50;99.90;;;;;;5055305;28;20060;-90
2022/06/30 12:24:41;;;;;;;5.43;2.65;;;39.50;99.90;;;;;;5054319;28;20493;-88
2022/06/30 12:27:33;;;;;;;6.13;2.47;;;39.80;1.00;;;;;;5030291;28;20049;-89
2022/06/30 12:30:24;;;;;;;4.00;2.47;;;39.30;1.00;;;;;;5046482;28;20056;-89
2022/06/30 12:33:11;;;;;;;4.65;2.65;;;36.60;99.90;;;;;;5038885;28;20048;-89
2022/06/30 12:36:02;;;;;;;6.18;2.72;;;34.40;99.90;;;;;;5034807;28;20115;-89
2022/06/30 12:38:49;;;;;;;7.35;2.90;;;34.20;1.00;;;;;;5039665;28;20051;-89
2022/06/30 12:41:44;;;;;;;4.50;2.50;;;34.30;1.00;;;;;;5047396;28;20042;-90
2022/06/30 12:44:35;;;;;;;12.48;3.13;;;34.70;61.00;;;;;;5029658;28;20108;-90
2022/06/30 12:47:24;;;;;;;7.10;2.28;;;35.90;1.00;;;;;;5035681;28;20131;-91
2022/06/30 12:50:21;;;;;;;7.60;2.85;;;36.40;1.00;;;;;;5050781;28;20103;-89
2022/06/30 12:53:18;;;;;;;8.45;2.80;;;37.00;99.90;;;;;;5050267;28;20094;-89
2022/06/30 12:56:22;;;;;;;4.22;2.92;;;37.10;1.00;;;;;;5052110;28;20041;-89
2022/06/30 12:59:16;;;;;;;7.78;2.40;;;37.00;99.90;;;;;;5054342;28;20055;-90
2022/06/30 13:02:06;;;;;;;6.78;2.50;;;36.90;1.00;;;;;;5046836;28;20075;-90
2022/06/30 13:04:56;;;;;;;6.50;2.25;;;36.90;1.00;;;;;;5036277;28;20148;-90
2022/06/30 13:07:43;;;;;;;5.93;2.33;;;37.50;1.00;;;;;;5051897;28;20048;-91
2022/06/30 13:13:37;;;;;;;5.32;2.20;;;38.40;1.00;;;;;;5052865;28;20064;-87
2022/06/30 13:16:25;;;;;;;3.65;2.10;;;38.70;1.00;;;;;;5052687;28;20410;-92
2022/06/30 13:19:14;;;;;;;2.67;2.03;;;38.90;1.00;;;;;;5039029;28;20081;-89
2022/06/30 13:22:05;;;;;;;4.20;1.92;;;38.50;1.00;;;;;;5042548;28;20052;-90
2022/06/30 13:24:52;;;;;;;4.05;2.42;;;38.90;1.00;;;;;;5050036;28;20051;-90
2022/06/30 13:27:39;;;;;;;5.38;2.72;;;38.90;99.90;;;;;;5035318;28;20442;-89
2022/06/30 13:30:27;;;;;;;4.47;2.20;;;38.90;99.90;;;;;;5049622;28;20067;-87
2022/06/30 13:33:14;;;;;;;7.85;2.50;;;38.50;99.90;;;;;;5029926;28;20052;-88
2022/06/30 13:36:04;;;;;;;6.88;2.85;;;38.90;36.00;;;;;;5052034;28;20048;-87
2022/06/30 13:38:51;;;;;;;4.20;2.70;;;37.80;19.90;;;;;;5038448;28;20045;-86
2022/06/30 13:41:42;;;;;;;5.63;2.58;;;37.00;1.00;;;;;;5036900;28;20140;-86
2022/06/30 13:44:29;;;;;;;3.15;2.38;;;36.20;99.90;;;;;;5050033;28;20336;-87
2022/06/30 13:47:16;;;;;;;5.45;2.90;;;35.30;99.90;;;;;;5050047;28;20431;-86
2022/06/30 13:50:04;;;;;;;31.92;4.90;;;33.80;99.90;;;;;;5034258;28;20056;-88
2022/06/30 13:52:51;;;;;;;6.13;3.15;;;32.70;99.90;;;;;;5043499;28;20121;-86
2022/06/30 13:55:44;;;;;;;9.38;3.05;;;31.80;1.00;;;;;;5038286;28;20442;-87
2022/06/30 13:58:34;;;;;;;7.35;2.83;;;31.10;9.90;;;;;;5052465;28;20504;-87
2022/06/30 14:01:22;;;;;;;6.32;3.08;;;30.80;99.90;;;;;;5050436;28;20045;-88
2022/06/30 14:04:13;;;;;;;11.57;3.35;;;30.30;1.00;;;;;;5054907;28;20049;-86
2022/06/30 14:07:04;;;;;;;3.78;2.50;;;29.90;1.00;;;;;;5038948;28;20091;-87
2022/06/30 14:09:54;;;;;;;6.70;2.80;;;29.50;99.90;;;;;;5050169;28;20040;-88
2022/06/30 14:12:42;;;;;;;7.75;3.58;;;29.30;1.00;;;;;;5049537;28;20186;-88
2022/06/30 14:15:30;;;;;;;7.05;3.30;;;29.10;99.90;;;;;;5052099;28;20210;-88
2022/06/30 14:18:18;;;;;;;8.52;3.58;;;29.00;1.00;;;;;;5050692;28;20037;-88
2022/06/30 14:21:07;;;;;;;8.13;3.45;;;28.60;1.00;;;;;;5048524;28;20110;-87
2022/06/30 14:23:55;;;;;;;9.65;3.30;;;28.40;99.90;;;;;;5050260;28;20103;-88
2022/06/30 14:26:42;;;;;;;5.70;3.50;;;28.20;99.90;;;;;;5046005;28;20067;-88
2022/06/30 14:29:30;;;;;;;7.95;3.22;;;27.90;99.90;;;;;;5049703;28;20470;-89
2022/06/30 14:32:17;;;;;;;6.78;2.95;;;27.80;98.50;;;;;;5039328;28;20434;-89
2022/06/30 14:35:05;;;;;;;5.32;2.92;;;27.60;1.00;;;;;;5038226;28;20052;-88
2022/06/30 14:37:53;;;;;;;8.77;3.67;;;27.40;1.00;;;;;;5048545;28;20045;-91
2022/06/30 14:40:40;;;;;;;10.27;3.50;;;27.30;1.00;;;;;;5030315;28;20057;-93
2022/06/30 14:43:27;;;;;;;5.57;3.40;;;27.10;99.90;;;;;;5048211;28;20044;-93
2022/06/30 14:46:35;;;;;;;6.68;3.40;;;27.00;99.90;;;;;;5030715;28;20041;-92
2022/06/30 14:49:24;;;;;;;7.35;3.45;;;26.90;26.80;;;;;;5044321;28;20120;-91
2022/06/30 14:52:33;;;;;;;7.35;3.20;;;26.80;1.00;;;;;;5046447;28;20050;-91
2022/06/30 14:55:28;;;;;;;4.45;2.90;;;26.70;1.00;;;;;;5023851;28;20053;-94
2022/06/30 14:58:15;;;;;;;12.55;7.38;;;26.40;1.00;;;;;;5044850;28;20041;-94
2022/06/30 15:01:03;;;;;;;13.77;7.10;;;26.30;29.50;;;;;;5060675;28;20104;-92
2022/06/30 15:03:52;;;;;;;10.50;5.38;;;25.90;99.90;;;;;;5058997;28;20053;-91